createdAt,value
2023-05-20T00:00:50.350Z,102477.16
2023-05-20T00:03:17.415Z,102473.59
2023-05-20T00:05:44.194Z,102473.59
2023-05-20T00:08:10.756Z,102474.47
2023-05-20T00:10:37.297Z,102474.56
2023-05-20T00:13:03.880Z,102478.16
2023-05-20T00:15:30.468Z,102472.84
2023-05-20T00:17:57.213Z,102481.72
2023-05-20T00:20:23.784Z,102478.16
2023-05-20T00:22:50.344Z,102482.63
2023-05-20T00:25:16.920Z,102480.84
2023-05-20T00:27:43.536Z,102471.13
2023-05-20T00:30:10.278Z,102485.28
2023-05-20T00:32:36.888Z,102481.78
2023-05-20T00:35:03.963Z,102479.13
2023-05-20T00:37:30.547Z,102480.91
2023-05-20T00:39:57.076Z,102480.94
2023-05-20T00:42:27.460Z,102487.22
2023-05-20T00:44:54.467Z,102476.56
2023-05-20T00:47:23.548Z,102473.00
2023-05-20T00:49:50.598Z,102469.41
2023-05-20T00:52:18.410Z,102476.56
2023-05-20T00:54:45.010Z,102470.41
2023-05-20T00:57:11.625Z,102472.19
2023-05-20T00:59:38.254Z,102467.81
2023-05-20T01:02:05.052Z,102466.03
2023-05-20T01:04:32.077Z,102467.75
2023-05-20T01:06:59.391Z,102473.09
2023-05-20T01:09:26.137Z,102477.63
2023-05-20T01:11:59.508Z,102459.81
2023-05-20T01:14:27.333Z,102470.50
2023-05-20T01:16:54.074Z,102461.59
2023-05-20T01:19:44.540Z,102457.13
2023-05-20T01:22:12.148Z,102468.72
2023-05-20T01:24:46.256Z,102465.16
2023-05-20T01:27:12.916Z,102463.34
2023-05-20T01:29:40.063Z,102462.47
2023-05-20T01:32:07.955Z,102473.09
2023-05-20T01:34:35.734Z,102458.00
2023-05-20T01:37:03.854Z,102460.69
2023-05-20T01:39:30.474Z,102471.41
2023-05-20T01:41:57.053Z,102455.41
2023-05-20T01:44:23.583Z,102456.34
2023-05-20T01:46:50.504Z,102464.34
2023-05-20T01:49:17.115Z,102464.41
2023-05-20T01:51:43.689Z,102461.75
2023-05-20T01:54:10.286Z,102463.53
2023-05-20T01:56:36.901Z,102465.31
2023-05-20T01:59:03.494Z,102468.00
2023-05-20T02:01:30.271Z,102464.41
2023-05-20T02:03:56.947Z,102468.88
2023-05-20T02:06:23.612Z,102465.31
2023-05-20T02:08:50.219Z,102462.63
2023-05-20T02:11:16.850Z,102457.31
2023-05-20T02:13:43.416Z,102450.19
2023-05-20T02:16:09.977Z,102456.41
2023-05-20T02:18:36.609Z,102453.72
2023-05-20T02:21:03.761Z,102459.97
2023-05-20T02:23:33.131Z,102437.75
2023-05-20T02:25:59.665Z,102451.97
2023-05-20T02:28:26.272Z,102447.56
2023-05-20T02:30:52.813Z,102450.25
2023-05-20T02:33:19.698Z,102445.78
2023-05-20T02:35:46.392Z,102445.84
2023-05-20T02:38:13.108Z,102437.84
2023-05-20T02:40:39.685Z,102444.09
2023-05-20T02:43:06.256Z,102446.75
2023-05-20T02:45:32.857Z,102439.69
2023-05-20T02:47:59.599Z,102450.38
2023-05-20T02:50:26.227Z,102438.81
2023-05-20T02:52:52.790Z,102438.81
2023-05-20T02:55:19.392Z,102445.03
2023-05-20T02:57:45.911Z,102428.13
2023-05-20T03:00:12.703Z,102435.31
2023-05-20T03:02:39.527Z,102441.53
2023-05-20T03:05:06.525Z,102446.00
2023-05-20T03:07:34.563Z,102450.44
2023-05-20T03:10:01.156Z,102450.44
2023-05-20T03:12:27.847Z,102453.06
2023-05-20T03:14:54.430Z,102457.56
2023-05-20T03:17:21.856Z,102457.50
2023-05-20T03:19:48.448Z,102462.88
2023-05-20T03:22:15.027Z,102458.44
2023-05-20T03:24:41.609Z,102450.44
2023-05-20T03:27:08.158Z,102454.00
2023-05-20T03:29:34.720Z,102446.91
2023-05-20T03:32:01.290Z,102447.81
2023-05-20T03:34:27.842Z,102442.47
2023-05-20T03:36:54.410Z,102437.13
2023-05-20T03:39:20.969Z,102448.66
2023-05-20T03:41:47.534Z,102432.69
2023-05-20T03:44:14.133Z,102449.56
2023-05-20T03:46:40.774Z,102450.44
2023-05-20T03:49:07.385Z,102428.25
2023-05-20T03:51:33.995Z,102446.88
2023-05-20T03:54:00.552Z,102441.53
2023-05-20T03:56:27.149Z,102448.66
2023-05-20T03:58:53.743Z,102443.31
2023-05-20T04:01:20.344Z,102448.66
2023-05-20T04:03:47.152Z,102446.88
2023-05-20T04:06:14.046Z,102449.53
2023-05-20T04:08:40.668Z,102452.16
2023-05-20T04:11:07.309Z,102452.09
2023-05-20T04:13:33.892Z,102447.63
2023-05-20T04:16:00.571Z,102454.69
2023-05-20T04:18:27.142Z,102452.09
2023-05-20T04:20:55.078Z,102450.31
2023-05-20T04:23:21.646Z,102460.94
2023-05-20T04:25:48.216Z,102444.06
2023-05-20T04:28:14.859Z,102452.91
2023-05-20T04:30:41.390Z,102465.38
2023-05-20T04:33:08.401Z,102456.47
2023-05-20T04:35:35.141Z,102454.75
2023-05-20T04:38:02.109Z,102453.88
2023-05-20T04:40:28.701Z,102452.97
2023-05-20T04:42:55.258Z,102444.97
2023-05-20T04:45:21.904Z,102451.16
2023-05-20T04:47:48.465Z,102450.31
2023-05-20T04:50:15.119Z,102439.63
2023-05-20T04:52:41.882Z,102450.25
2023-05-20T04:55:09.200Z,102444.00
2023-05-20T04:57:35.993Z,102447.56
2023-05-20T05:00:02.667Z,102449.34
2023-05-20T05:02:29.275Z,102444.91
2023-05-20T05:04:55.898Z,102444.81
2023-05-20T05:07:22.548Z,102446.59
2023-05-20T05:09:49.126Z,102448.38
2023-05-20T05:12:15.729Z,102439.47
2023-05-20T05:14:42.302Z,102446.59
2023-05-20T05:17:08.867Z,102448.38
2023-05-20T05:19:35.498Z,102443.78
2023-05-20T05:22:02.103Z,102455.38
2023-05-20T05:24:28.673Z,102447.31
2023-05-20T05:26:55.474Z,102442.78
2023-05-20T05:29:22.166Z,102450.75
2023-05-20T05:31:48.723Z,102444.53
2023-05-20T05:34:15.305Z,102440.03
2023-05-20T05:36:41.891Z,102455.97
2023-05-20T05:39:08.450Z,102447.03
2023-05-20T05:41:35.117Z,102460.25
2023-05-20T05:44:01.715Z,102454.84
2023-05-20T05:46:28.319Z,102449.50
2023-05-20T05:48:54.898Z,102447.63
2023-05-20T05:51:21.659Z,102447.66
2023-05-20T05:53:48.261Z,102444.03
2023-05-20T05:56:14.844Z,102444.88
2023-05-20T05:58:41.436Z,102444.84
2023-05-20T06:01:08.023Z,102453.66
2023-05-20T06:03:34.795Z,102453.53
2023-05-20T06:06:01.621Z,102452.50
2023-05-20T06:08:28.186Z,102448.03
2023-05-20T06:10:54.762Z,102447.94
2023-05-20T06:13:21.404Z,102450.59
2023-05-20T06:15:49.785Z,102439.78
2023-05-20T06:18:16.344Z,102445.06
2023-05-20T06:20:42.928Z,102449.38
2023-05-20T06:23:09.509Z,102448.53
2023-05-20T06:25:36.215Z,102442.22
2023-05-20T06:28:02.891Z,102441.22
2023-05-20T06:30:29.491Z,102445.63
2023-05-20T06:32:56.084Z,102446.41
2023-05-20T06:35:22.732Z,102441.06
2023-05-20T06:37:49.321Z,102434.81
2023-05-20T06:40:16.008Z,102440.16
2023-05-20T06:42:42.579Z,102436.41
2023-05-20T06:45:09.439Z,102430.94
2023-05-20T06:47:36.098Z,102421.91
2023-05-20T06:50:02.735Z,102429.84
2023-05-20T06:52:29.289Z,102423.38
2023-05-20T06:54:55.869Z,102411.72
2023-05-20T06:57:22.446Z,102416.97
2023-05-20T06:59:49.018Z,102408.78
2023-05-20T07:02:15.670Z,102395.28
2023-05-20T07:04:42.247Z,102396.97
2023-05-20T07:07:08.821Z,102398.47
2023-05-20T07:09:35.695Z,102399.16
2023-05-20T07:12:02.322Z,102394.56
2023-05-20T07:14:28.964Z,102396.28
2023-05-20T07:16:55.559Z,102397.94
2023-05-20T07:19:22.138Z,102403.19
2023-05-20T07:21:48.778Z,102396.94
2023-05-20T07:24:15.809Z,102402.19
2023-05-20T07:26:42.379Z,102413.59
2023-05-20T07:29:09.212Z,102410.78
2023-05-20T07:31:35.964Z,102402.50
2023-05-20T07:34:02.604Z,102399.63
2023-05-20T07:36:29.301Z,102400.28
2023-05-20T07:39:02.684Z,102402.00
2023-05-20T07:41:31.811Z,102397.53
2023-05-20T07:43:58.368Z,102397.34
2023-05-20T07:46:25.043Z,102393.75
2023-05-20T07:48:51.632Z,102396.44
2023-05-20T07:51:18.219Z,102391.66
2023-05-20T07:53:44.800Z,102381.88
2023-05-20T07:56:11.377Z,102388.97
2023-05-20T07:58:37.959Z,102383.41
2023-05-20T08:01:04.536Z,102389.63
2023-05-20T08:03:31.169Z,102391.28
2023-05-20T08:05:57.756Z,102389.44
2023-05-20T08:08:24.366Z,102399.28
2023-05-20T08:10:51.469Z,102392.09
2023-05-20T08:13:18.066Z,102398.19
2023-05-20T08:15:44.669Z,102394.41
2023-05-20T08:18:11.290Z,102391.38
2023-05-20T08:20:37.893Z,102384.91
2023-05-20T08:23:04.480Z,102365.16
2023-05-20T08:25:31.072Z,102381.69
2023-05-20T08:27:57.758Z,102386.81
2023-05-20T08:30:24.371Z,102381.16
2023-05-20T08:32:50.976Z,102378.25
2023-05-20T08:35:17.705Z,102373.84
2023-05-20T08:37:44.308Z,102371.94
2023-05-20T08:40:11.362Z,102370.78
2023-05-20T08:42:41.493Z,102367.84
2023-05-20T08:45:09.168Z,102364.28
2023-05-20T08:47:35.772Z,102366.34
2023-05-20T08:50:02.448Z,102357.59
2023-05-20T08:52:29.022Z,102360.53
2023-05-20T08:54:55.608Z,102360.88
2023-05-20T08:57:22.186Z,102360.53
2023-05-20T08:59:48.821Z,102348.47
2023-05-20T09:02:15.410Z,102362.22
2023-05-20T09:04:42.029Z,102360.16
2023-05-20T09:07:08.763Z,102361.66
2023-05-20T09:09:35.501Z,102348.38
2023-05-20T09:12:02.588Z,102348.41
2023-05-20T09:14:30.355Z,102350.66
2023-05-20T09:16:56.890Z,102339.47
2023-05-20T09:19:24.499Z,102348.03
2023-05-20T09:21:53.009Z,102352.28
2023-05-20T09:24:25.941Z,102342.13
2023-05-20T09:26:52.697Z,102337.16
2023-05-20T09:29:19.286Z,102338.88
2023-05-20T09:31:45.971Z,102325.03
2023-05-20T09:34:12.491Z,102328.94
2023-05-20T09:36:39.613Z,102336.97
2023-05-20T09:39:06.275Z,102337.38
2023-05-20T09:41:39.476Z,102329.84
2023-05-20T09:44:06.943Z,102329.34
2023-05-20T09:46:34.567Z,102318.22
2023-05-20T09:49:01.401Z,102323.06
2023-05-20T09:51:28.387Z,102324.63
2023-05-20T09:53:54.928Z,102322.50
2023-05-20T09:56:21.523Z,102316.84
2023-05-20T09:58:48.133Z,102322.97
2023-05-20T10:01:14.788Z,102334.25
2023-05-20T10:03:44.111Z,102321.22
2023-05-20T10:06:17.411Z,102330.13
2023-05-20T10:08:53.762Z,102324.66
2023-05-20T10:11:38.535Z,102323.09
2023-05-20T10:14:59.156Z,102334.34
2023-05-20T10:17:45.819Z,102322.38
2023-05-20T10:20:12.387Z,102303.25
2023-05-20T10:22:39.031Z,102305.56
2023-05-20T10:25:06.621Z,102301.00
2023-05-20T10:27:48.096Z,102305.63
2023-05-20T10:30:21.537Z,102293.19
2023-05-20T10:32:58.449Z,102303.31
2023-05-20T10:35:25.503Z,102309.03
2023-05-20T10:37:52.394Z,102307.22
2023-05-20T10:40:19.750Z,102285.44
2023-05-20T10:42:46.338Z,102291.44
2023-05-20T10:45:13.001Z,102285.84
2023-05-20T10:47:53.383Z,102285.00
2023-05-20T10:50:36.711Z,102282.22
2023-05-20T10:53:13.040Z,102281.13
2023-05-20T10:55:48.626Z,102273.34
2023-05-20T10:58:15.234Z,102274.41
2023-05-20T11:00:41.845Z,102268.13
2023-05-20T11:03:08.525Z,102273.59
2023-05-20T11:05:35.154Z,102279.72
2023-05-20T11:08:04.432Z,102278.59
2023-05-20T11:10:35.564Z,102274.75
2023-05-20T11:13:02.861Z,102276.44
2023-05-20T11:15:29.677Z,102261.91
2023-05-20T11:17:57.962Z,102265.22
2023-05-20T11:20:24.728Z,102256.91
2023-05-20T11:22:51.654Z,102263.16
2023-05-20T11:25:18.666Z,102262.34
2023-05-20T11:27:45.659Z,102254.34
2023-05-20T11:30:13.370Z,102248.34
2023-05-20T11:32:40.041Z,102252.88
2023-05-20T11:35:07.282Z,102247.72
2023-05-20T11:37:35.975Z,102250.38
2023-05-20T11:40:08.972Z,102245.16
2023-05-20T11:42:36.562Z,102247.06
2023-05-20T11:45:04.652Z,102247.22
2023-05-20T11:47:31.229Z,102240.91
2023-05-20T11:49:57.785Z,102244.41
2023-05-20T11:52:24.329Z,102255.06
2023-05-20T11:54:53.813Z,102232.75
2023-05-20T11:57:20.251Z,102245.38
2023-05-20T11:59:47.238Z,102246.44
2023-05-20T12:02:15.958Z,102248.22
2023-05-20T12:04:42.744Z,102248.13
2023-05-20T12:07:09.428Z,102249.97
2023-05-20T12:09:36.086Z,102243.56
2023-05-20T12:12:02.689Z,102227.44
2023-05-20T12:14:29.333Z,102235.47
2023-05-20T12:16:55.951Z,102243.69
2023-05-20T12:19:22.544Z,102241.19
2023-05-20T12:21:49.160Z,102242.06
2023-05-20T12:24:15.772Z,102245.56
2023-05-20T12:26:42.363Z,102232.84
2023-05-20T12:29:09.029Z,102233.22
2023-05-20T12:31:35.608Z,102219.97
2023-05-20T12:34:02.179Z,102217.59
2023-05-20T12:36:28.797Z,102222.78
2023-05-20T12:38:55.393Z,102228.44
2023-05-20T12:41:22.048Z,102221.78
2023-05-20T12:43:48.643Z,102223.16
2023-05-20T12:46:15.277Z,102218.69
2023-05-20T12:48:42.666Z,102225.94
2023-05-20T12:51:09.419Z,102219.94
2023-05-20T12:53:36.012Z,102218.19
2023-05-20T12:56:02.620Z,102221.19
2023-05-20T12:58:29.178Z,102212.81
2023-05-20T13:02:50.731Z,102213.38
2023-05-20T13:05:17.368Z,102206.94
2023-05-20T13:07:43.970Z,102209.06
2023-05-20T13:10:10.781Z,102197.84
2023-05-20T13:12:37.567Z,102193.88
2023-05-20T13:15:04.729Z,102195.81
2023-05-20T13:17:31.276Z,102195.00
2023-05-20T13:19:57.884Z,102186.00
2023-05-20T13:22:24.447Z,102177.16
2023-05-20T13:24:50.975Z,102178.97
2023-05-20T13:27:17.549Z,102179.34
2023-05-20T13:29:44.115Z,102181.50
2023-05-20T13:32:10.886Z,102173.50
2023-05-20T13:34:37.484Z,102174.59
2023-05-20T13:37:04.446Z,102176.59
2023-05-20T13:39:31.010Z,102176.81
2023-05-20T13:41:58.477Z,102171.59
2023-05-20T13:44:25.019Z,102169.78
2023-05-20T13:46:51.722Z,102157.00
2023-05-20T13:49:18.318Z,102162.34
2023-05-20T13:51:44.886Z,102155.06
2023-05-20T13:54:11.466Z,102151.72
2023-05-20T13:56:37.987Z,102142.31
2023-05-20T13:59:04.552Z,102139.09
2023-05-20T14:01:31.163Z,102139.25
2023-05-20T14:03:57.899Z,102139.28
2023-05-20T14:06:24.522Z,102132.09
2023-05-20T14:08:54.159Z,102139.69
2023-05-20T14:11:20.726Z,102137.88
2023-05-20T14:13:47.302Z,102133.09
2023-05-20T14:16:13.918Z,102135.88
2023-05-20T14:18:40.636Z,102137.31
2023-05-20T14:21:07.223Z,102128.47
2023-05-20T14:23:33.775Z,102122.03
2023-05-20T14:26:00.342Z,102125.94
2023-05-20T14:28:26.943Z,102124.41
2023-05-20T14:30:54.050Z,102119.00
2023-05-20T14:33:20.622Z,102119.59
2023-05-20T14:35:47.143Z,102114.34
2023-05-20T14:38:13.725Z,102110.41
2023-05-20T14:40:40.276Z,102090.59
2023-05-20T14:43:06.862Z,102100.97
2023-05-20T14:45:33.498Z,102098.94
2023-05-20T14:48:00.066Z,102095.94
2023-05-20T14:50:27.607Z,102096.56
2023-05-20T14:52:54.180Z,102098.78
2023-05-20T14:55:20.749Z,102088.50
2023-05-20T14:57:47.645Z,102088.84
2023-05-20T15:00:14.362Z,102088.25
2023-05-20T15:02:40.986Z,102086.66
2023-05-20T15:05:07.869Z,102084.19
2023-05-20T15:07:34.444Z,102082.56
2023-05-20T15:10:01.009Z,102074.69
2023-05-20T15:12:27.640Z,102083.47
2023-05-20T15:14:54.224Z,102077.31
2023-05-20T15:17:20.793Z,102077.63
2023-05-20T15:19:47.354Z,102079.56
2023-05-20T15:22:13.921Z,102071.63
2023-05-20T15:24:40.497Z,102072.56
2023-05-20T15:27:07.080Z,102069.53
2023-05-20T15:29:33.646Z,102065.75
2023-05-20T15:32:00.200Z,102076.31
2023-05-20T15:34:26.788Z,102072.72
2023-05-20T15:36:53.463Z,102074.28
2023-05-20T15:39:20.084Z,102067.97
2023-05-20T15:41:46.712Z,102065.09
2023-05-20T15:44:13.401Z,102061.34
2023-05-20T15:46:40.035Z,102055.91
2023-05-20T15:49:06.810Z,102059.53
2023-05-20T15:51:33.434Z,102053.44
2023-05-20T15:54:00.046Z,102049.34
2023-05-20T15:56:26.616Z,102056.78
2023-05-20T15:58:53.214Z,102052.38
2023-05-20T16:01:19.771Z,102047.28
2023-05-20T16:03:46.389Z,102049.38
2023-05-20T16:06:13.061Z,102041.50
2023-05-20T16:08:39.625Z,102041.16
2023-05-20T16:11:06.202Z,102045.41
2023-05-20T16:13:32.752Z,102041.78
2023-05-20T16:15:59.544Z,102044.63
2023-05-20T16:18:26.693Z,102039.34
2023-05-20T16:20:53.267Z,102046.63
2023-05-20T16:23:19.837Z,102053.00
2023-05-20T16:25:46.449Z,102043.22
2023-05-20T16:28:12.999Z,102041.41
2023-05-20T16:30:39.583Z,102042.22
2023-05-20T16:33:06.214Z,102026.50
2023-05-20T16:35:32.814Z,102027.47
2023-05-20T16:37:59.376Z,102033.09
2023-05-20T16:40:26.000Z,102025.97
2023-05-20T16:42:52.567Z,102021.66
2023-05-20T16:45:19.139Z,102022.63
2023-05-20T16:47:45.751Z,102022.63
2023-05-20T16:50:12.335Z,102025.25
2023-05-20T16:52:38.989Z,102018.97
2023-05-20T16:55:05.794Z,102013.59
2023-05-20T16:57:32.682Z,102014.44
2023-05-20T16:59:59.211Z,102028.91
2023-05-20T17:02:25.796Z,102029.00
2023-05-20T17:04:52.389Z,102017.53
2023-05-20T17:07:18.988Z,102024.69
2023-05-20T17:09:45.578Z,102027.31
2023-05-20T17:12:12.134Z,102019.09
2023-05-20T17:14:38.709Z,102028.25
2023-05-20T17:17:05.554Z,102014.97
2023-05-20T17:19:32.307Z,102017.72
2023-05-20T17:21:58.999Z,102022.38
2023-05-20T17:24:25.589Z,102023.31
2023-05-20T17:26:52.112Z,102020.56
2023-05-20T17:29:18.872Z,102016.84
2023-05-20T17:31:45.493Z,102018.59
2023-05-20T17:34:12.140Z,102012.28
2023-05-20T17:36:38.848Z,102007.84
2023-05-20T17:39:05.413Z,102013.31
2023-05-20T17:41:31.971Z,102019.75
2023-05-20T17:43:58.566Z,102010.91
2023-05-20T17:46:25.165Z,102010.84
2023-05-20T17:48:52.679Z,102010.09
2023-05-20T17:51:19.316Z,102010.00
2023-05-20T17:53:45.925Z,102011.03
2023-05-20T17:56:13.062Z,102010.22
2023-05-20T17:58:39.615Z,102008.47
2023-05-20T18:01:06.177Z,102013.00
2023-05-20T18:03:32.800Z,102013.94
2023-05-20T18:05:59.454Z,101998.59
2023-05-20T18:08:26.057Z,102004.06
2023-05-20T18:10:52.641Z,101996.03
2023-05-20T18:13:19.202Z,101988.28
2023-05-20T18:15:45.844Z,102002.50
2023-05-20T18:18:12.432Z,102003.31
2023-05-20T18:20:38.954Z,101990.75
2023-05-20T18:23:05.564Z,101988.06
2023-05-20T18:25:32.097Z,101998.09
2023-05-20T18:27:58.705Z,101997.06
2023-05-20T18:30:25.338Z,101992.59
2023-05-20T18:32:51.900Z,101995.50
2023-05-20T18:35:18.511Z,102002.78
2023-05-20T18:37:45.087Z,101996.53
2023-05-20T18:40:12.151Z,102002.03
2023-05-20T18:42:38.722Z,102009.25
2023-05-20T18:45:05.824Z,102002.19
2023-05-20T18:47:32.433Z,102002.13
2023-05-20T18:49:59.065Z,102005.06
2023-05-20T18:52:25.598Z,102006.03
2023-05-20T18:54:52.208Z,102011.41
2023-05-20T18:57:18.779Z,102007.88
2023-05-20T18:59:45.320Z,102006.31
2023-05-20T19:02:11.911Z,102006.13
2023-05-20T19:04:38.464Z,102013.34
2023-05-20T19:07:05.291Z,102013.47
2023-05-20T19:09:31.840Z,102012.66
2023-05-20T19:11:58.541Z,102022.75
2023-05-20T19:14:25.452Z,102013.00
2023-05-20T19:16:52.763Z,102015.78
2023-05-20T19:19:19.478Z,102015.97
2023-05-20T19:21:46.113Z,102018.63
2023-05-20T19:24:12.680Z,102025.03
2023-05-20T19:26:39.244Z,102027.88
2023-05-20T19:29:05.878Z,102031.69
2023-05-20T19:31:32.414Z,102039.06
2023-05-20T19:33:59.017Z,102039.22
2023-05-20T19:36:25.560Z,102034.00
2023-05-20T19:38:52.110Z,102038.59
2023-05-20T19:41:18.840Z,102031.50
2023-05-20T19:43:45.454Z,102036.03
2023-05-20T19:46:12.088Z,102038.84
2023-05-20T19:48:38.726Z,102037.06
2023-05-20T19:51:05.522Z,102047.94
2023-05-20T19:53:32.087Z,102044.56
2023-05-20T19:55:58.643Z,102039.28
2023-05-20T19:58:25.233Z,102041.19
2023-05-20T22:02:15.116Z,101970.25
2023-05-20T22:04:41.731Z,101971.03
2023-05-20T22:07:08.304Z,101972.69
2023-05-20T22:09:34.896Z,101970.06
2023-05-20T22:12:01.523Z,101975.53
2023-05-20T22:14:28.337Z,101979.13
2023-05-20T22:16:55.100Z,101969.41
2023-05-20T22:19:21.909Z,101969.41
2023-05-20T22:21:50.869Z,101961.34
2023-05-20T22:24:18.093Z,101960.44
2023-05-20T22:26:44.858Z,101961.50
2023-05-20T22:29:11.415Z,101964.09
2023-05-20T22:31:38.315Z,101965.00
2023-05-20T22:34:04.983Z,101961.53
2023-05-20T22:36:31.564Z,101958.88
2023-05-20T22:38:58.111Z,101950.03
2023-05-20T22:41:24.695Z,101953.56
2023-05-20T22:43:51.250Z,101943.72
2023-05-20T22:46:17.817Z,101943.75
2023-05-20T22:48:44.396Z,101938.59
2023-05-20T22:51:10.999Z,101936.00
2023-05-20T22:53:37.552Z,101938.72
2023-05-20T22:56:04.350Z,101944.09
2023-05-20T22:58:30.977Z,101933.38
2023-05-20T23:00:57.552Z,101926.34
2023-05-20T23:03:24.133Z,101929.88
2023-05-20T23:05:50.666Z,101928.09
2023-05-20T23:08:17.268Z,101915.88
2023-05-20T23:10:43.835Z,101927.50
2023-05-20T23:13:10.406Z,101915.09
2023-05-20T23:15:37.146Z,101927.53
2023-05-20T23:18:04.005Z,101919.50
2023-05-20T23:20:30.571Z,101925.81
2023-05-20T23:22:58.001Z,101919.63
2023-05-20T23:25:24.762Z,101907.22
2023-05-20T23:27:51.448Z,101903.59
2023-05-20T23:30:18.043Z,101905.47
2023-05-20T23:32:44.984Z,101916.13
2023-05-20T23:35:11.649Z,101896.56
2023-05-20T23:37:38.346Z,101888.59
2023-05-20T23:40:06.100Z,101898.50
2023-05-20T23:42:32.741Z,101899.56
2023-05-20T23:44:59.348Z,101888.06
2023-05-20T23:47:26.022Z,101889.72
2023-05-20T23:49:52.628Z,101881.75
2023-05-20T23:52:19.345Z,101885.38
2023-05-20T23:54:45.917Z,101881.00
2023-05-20T23:57:12.483Z,101882.81
2023-05-20T23:59:39.050Z,101879.44
